Time;durP1;ratioP1;P1;durP2;ratioP2;P2;SDS_P1;SDS_P2;PMS_P1;PMS_P2;Temp;Humidity;BMP_temperature;BMP_pressure;BME280_temperature;BME280_humidity;BME280_pressure;Samples;Min_cycle;Max_cycle;Signal;HPM_P1;HPM_P2
2022/12/01 00:02:22;;;;;;;70.13;40.87;;;4.00;99.90;;;;;;5011396;28;20228;-80
2022/12/01 00:04:51;;;;;;;70.90;41.33;;;4.00;99.90;;;;;;5019784;28;20228;-80
2022/12/01 00:07:19;;;;;;;70.13;40.90;;;4.00;99.90;;;;;;5024553;28;20228;-81
2022/12/01 00:12:30;;;;;;;71.43;40.67;;;4.00;99.90;;;;;;5015802;28;20220;-81
2022/12/01 00:14:59;;;;;;;74.63;41.77;;;4.00;99.90;;;;;;5011427;28;20682;-80
2022/12/01 00:17:27;;;;;;;72.07;41.47;;;4.00;99.90;;;;;;5014653;28;20236;-80
2022/12/01 00:19:54;;;;;;;74.10;43.17;;;4.00;99.90;;;;;;5019804;28;20245;-81
2022/12/01 00:22:22;;;;;;;78.77;43.70;;;4.00;99.90;;;;;;5015285;28;20225;-82
2022/12/01 00:24:49;;;;;;;73.27;41.40;;;4.00;99.90;;;;;;5016561;28;20240;-83
2022/12/01 00:27:16;;;;;;;68.97;41.67;;;4.00;99.90;;;;;;5013352;28;20248;-83
2022/12/01 00:29:43;;;;;;;70.90;41.73;;;4.00;99.90;;;;;;5016942;28;20244;-83
2022/12/01 00:32:10;;;;;;;71.53;41.80;;;4.00;99.90;;;;;;5018204;28;20233;-80
2022/12/01 00:34:38;;;;;;;70.87;41.53;;;4.00;99.90;;;;;;5016925;28;20320;-80
2022/12/01 00:37:05;;;;;;;72.50;42.27;;;4.00;99.90;;;;;;5014613;28;20228;-80
2022/12/01 00:39:33;;;;;;;71.90;42.67;;;4.00;99.90;;;;;;5020257;28;20575;-82
2022/12/01 00:42:00;;;;;;;72.17;42.20;;;4.00;99.90;;;;;;5014991;28;20358;-83
2022/12/01 00:44:26;;;;;;;71.00;42.30;;;4.00;99.90;;;;;;5018499;28;20239;-80
2022/12/01 00:46:53;;;;;;;72.03;41.27;;;4.00;99.90;;;;;;5021527;28;20660;-80
2022/12/01 00:49:20;;;;;;;73.37;41.87;;;4.00;99.90;;;;;;5019269;28;20728;-80
2022/12/01 00:51:49;;;;;;;76.20;43.20;;;4.00;99.90;;;;;;5022034;28;20220;-82
2022/12/01 00:54:16;;;;;;;75.93;41.57;;;4.00;99.90;;;;;;5013717;28;20229;-83
2022/12/01 00:56:46;;;;;;;70.40;42.10;;;4.00;99.90;;;;;;5001312;28;20232;-83
2022/12/01 00:59:13;;;;;;;68.63;41.63;;;3.90;99.90;;;;;;5016559;28;20213;-81
2022/12/01 01:01:40;;;;;;;74.30;42.00;;;3.90;99.90;;;;;;5010870;23;20236;-75
2022/12/01 01:04:07;;;;;;;74.13;41.67;;;3.90;99.90;;;;;;4978963;28;20224;-75
2022/12/01 01:06:34;;;;;;;72.07;41.07;;;3.90;99.90;;;;;;4987621;28;20218;-75
2022/12/01 01:09:01;;;;;;;74.00;42.13;;;3.90;99.90;;;;;;4982254;28;20242;-76
2022/12/01 01:11:28;;;;;;;75.37;42.60;;;3.90;99.90;;;;;;4972530;28;20231;-75
2022/12/01 01:13:56;;;;;;;78.07;44.67;;;3.90;99.90;;;;;;4965708;28;20254;-75
2022/12/01 01:16:23;;;;;;;76.90;42.63;;;3.90;99.90;;;;;;4970242;28;20301;-75
2022/12/01 01:18:50;;;;;;;77.00;41.83;;;3.90;99.90;;;;;;4967573;28;20223;-75
2022/12/01 01:21:19;;;;;;;70.70;40.50;;;3.90;99.90;;;;;;4966378;28;20248;-76
2022/12/01 01:23:47;;;;;;;73.57;42.47;;;3.80;99.90;;;;;;4967032;28;20315;-75
2022/12/01 01:26:15;;;;;;;76.03;43.13;;;3.90;99.90;;;;;;4969752;28;20227;-76
2022/12/01 01:28:44;;;;;;;73.37;40.67;;;3.90;99.90;;;;;;4961470;28;20254;-77
2022/12/01 01:31:14;;;;;;;72.03;41.07;;;3.80;99.90;;;;;;4995929;28;20227;-77
2022/12/01 01:33:41;;;;;;;74.17;42.47;;;3.80;99.90;;;;;;4970308;28;20230;-77
2022/12/01 01:36:08;;;;;;;77.00;42.97;;;3.80;99.90;;;;;;4968224;28;20480;-76
2022/12/01 01:38:35;;;;;;;74.37;42.43;;;3.80;99.90;;;;;;4988098;28;20227;-77
2022/12/01 01:41:03;;;;;;;76.57;42.03;;;3.80;99.90;;;;;;4971280;28;20230;-77
2022/12/01 01:43:45;;;;;;;73.17;41.00;;;3.80;99.90;;;;;;4966706;28;20233;-77
2022/12/01 01:46:15;;;;;;;75.53;42.57;;;3.80;99.90;;;;;;4968202;28;20246;-76
2022/12/01 01:48:44;;;;;;;77.53;42.63;;;3.80;99.90;;;;;;4964886;28;20318;-77
2022/12/01 01:51:13;;;;;;;74.43;42.13;;;3.90;99.90;;;;;;4967544;28;20315;-75
2022/12/01 01:53:40;;;;;;;76.47;42.30;;;3.80;99.90;;;;;;4965832;28;20230;-75
2022/12/01 01:56:08;;;;;;;78.80;43.00;;;3.90;99.90;;;;;;4966108;28;20234;-76
2022/12/01 01:58:36;;;;;;;78.37;44.00;;;3.90;99.90;;;;;;4968410;28;20254;-76
2022/12/01 02:01:03;;;;;;;81.50;44.07;;;3.80;99.90;;;;;;4965089;28;20227;-76
2022/12/01 02:03:32;;;;;;;77.53;42.67;;;3.90;99.90;;;;;;4965863;28;20712;-76
2022/12/01 02:06:00;;;;;;;75.90;42.20;;;3.80;99.90;;;;;;4965146;28;20259;-77
2022/12/01 02:08:27;;;;;;;77.80;44.60;;;3.90;99.90;;;;;;4964576;28;20227;-76
2022/12/01 02:11:09;;;;;;;80.40;43.53;;;3.80;99.90;;;;;;4969605;28;20666;-76
2022/12/01 02:13:50;;;;;;;78.87;45.63;;;3.80;99.90;;;;;;4961626;28;20226;-76
2022/12/01 02:16:22;;;;;;;81.07;43.73;;;3.80;99.90;;;;;;4962106;28;20844;-76
2022/12/01 02:18:58;;;;;;;79.47;42.43;;;3.90;99.90;;;;;;4965096;28;20727;-75
2022/12/01 02:21:34;;;;;;;80.33;44.43;;;3.80;99.90;;;;;;4963509;28;20230;-76
2022/12/01 02:24:36;;;;;;;81.30;44.90;;;3.90;99.90;;;;;;4964535;28;20223;-76
2022/12/01 02:27:14;;;;;;;76.43;42.20;;;3.90;99.90;;;;;;4969764;28;20274;-76
2022/12/01 02:30:09;;;;;;;80.13;43.90;;;3.90;99.90;;;;;;4964985;28;20235;-75
2022/12/01 02:33:02;;;;;;;80.97;45.17;;;3.90;99.90;;;;;;4965592;28;20242;-76
2022/12/01 02:35:34;;;;;;;78.73;43.40;;;3.90;99.90;;;;;;4995284;28;20230;-75
2022/12/01 02:38:11;;;;;;;81.93;43.63;;;3.90;99.90;;;;;;4966575;28;20306;-75
2022/12/01 02:40:43;;;;;;;76.97;43.90;;;4.00;99.90;;;;;;4965874;28;20306;-75
2022/12/01 02:43:17;;;;;;;82.60;44.97;;;3.90;99.90;;;;;;4963243;28;20254;-76
2022/12/01 02:45:50;;;;;;;80.63;44.17;;;3.90;99.90;;;;;;4960673;28;20228;-75
2022/12/01 02:48:23;;;;;;;80.17;44.17;;;3.90;99.90;;;;;;4966115;28;20222;-75
2022/12/01 02:50:53;;;;;;;79.77;43.80;;;3.90;99.90;;;;;;4966640;28;20310;-75
2022/12/01 02:53:20;;;;;;;81.17;43.23;;;3.90;99.90;;;;;;4967056;28;20781;-75
2022/12/01 02:55:50;;;;;;;81.00;43.43;;;3.90;99.90;;;;;;4963089;28;20247;-75
2022/12/01 02:58:16;;;;;;;81.43;44.63;;;3.90;99.90;;;;;;4974296;28;20278;-74
2022/12/01 03:00:55;;;;;;;82.50;44.17;;;3.90;99.90;;;;;;4967016;28;20233;-75
2022/12/01 03:03:47;;;;;;;81.83;43.03;;;3.80;99.90;;;;;;4966723;28;20719;-75
2022/12/01 03:06:20;;;;;;;84.77;43.23;;;3.80;99.90;;;;;;4970053;28;20755;-75
2022/12/01 03:08:52;;;;;;;85.50;45.07;;;3.80;99.90;;;;;;4965598;28;20231;-75
2022/12/01 03:11:35;;;;;;;84.93;45.27;;;3.80;99.90;;;;;;4967688;28;20319;-75
2022/12/01 03:14:12;;;;;;;79.17;44.40;;;3.80;99.90;;;;;;4996883;28;20770;-76
2022/12/01 03:16:47;;;;;;;82.80;43.27;;;3.70;99.90;;;;;;4965114;28;20274;-76
2022/12/01 03:19:21;;;;;;;82.97;44.77;;;3.70;99.90;;;;;;4966293;28;20223;-76
2022/12/01 03:21:55;;;;;;;93.27;46.33;;;3.70;99.90;;;;;;4966482;28;20235;-75
2022/12/01 03:24:25;;;;;;;85.97;44.23;;;3.70;99.90;;;;;;4966435;28;20358;-76
2022/12/01 03:26:57;;;;;;;92.80;46.57;;;3.70;99.90;;;;;;4965701;28;20230;-76
2022/12/01 03:29:29;;;;;;;87.53;46.17;;;3.70;99.90;;;;;;4964263;28;20236;-75
2022/12/01 03:32:01;;;;;;;85.60;44.80;;;3.70;99.90;;;;;;4964614;28;20269;-75
2022/12/01 03:34:32;;;;;;;89.40;44.70;;;3.70;99.90;;;;;;4980703;28;20234;-75
2022/12/01 03:37:04;;;;;;;86.80;46.20;;;3.70;99.90;;;;;;4972389;28;20234;-76
2022/12/01 03:39:34;;;;;;;84.40;44.87;;;3.70;99.90;;;;;;4971147;28;20292;-76
2022/12/01 03:42:05;;;;;;;88.83;45.57;;;3.60;99.90;;;;;;4978956;28;20230;-76
2022/12/01 03:44:38;;;;;;;85.33;46.27;;;3.70;99.90;;;;;;4973066;28;20227;-75
2022/12/01 03:47:07;;;;;;;87.13;45.77;;;3.70;99.90;;;;;;4981633;28;20242;-76
2022/12/01 03:49:36;;;;;;;87.03;44.93;;;3.80;99.90;;;;;;4959555;28;20937;-76
2022/12/01 03:52:13;;;;;;;85.87;45.03;;;3.70;99.90;;;;;;4967582;28;20250;-76
2022/12/01 03:54:49;;;;;;;82.83;44.30;;;3.80;99.90;;;;;;4962809;28;20293;-76
2022/12/01 03:57:23;;;;;;;83.00;44.60;;;3.70;99.90;;;;;;4963977;28;20312;-76
2022/12/01 03:59:50;;;;;;;83.63;45.43;;;3.70;99.90;;;;;;4965580;28;20234;-76
2022/12/01 04:02:18;;;;;;;85.27;44.40;;;3.70;99.90;;;;;;4964922;28;20825;-75
2022/12/01 04:04:46;;;;;;;82.40;42.97;;;3.70;99.90;;;;;;4980247;28;20219;-75
2022/12/01 04:07:13;;;;;;;80.67;43.10;;;3.70;99.90;;;;;;4960962;28;20261;-75
2022/12/01 04:09:41;;;;;;;83.93;44.67;;;3.70;99.90;;;;;;4960629;28;20711;-75
2022/12/01 04:14:53;;;;;;;85.33;45.43;;;3.70;99.90;;;;;;4964642;28;20215;-76
2022/12/01 04:17:20;;;;;;;86.57;44.67;;;3.60;99.90;;;;;;4966373;28;20261;-76
2022/12/01 04:19:48;;;;;;;87.70;45.43;;;3.70;99.90;;;;;;4966157;28;20227;-76
2022/12/01 04:22:15;;;;;;;85.37;44.30;;;3.70;99.90;;;;;;4964594;28;20310;-76
2022/12/01 04:24:42;;;;;;;84.43;43.57;;;3.60;99.90;;;;;;4966403;28;20593;-77
2022/12/01 04:27:09;;;;;;;87.50;45.43;;;3.60;99.90;;;;;;4956038;28;20810;-76
2022/12/01 04:29:36;;;;;;;83.57;43.93;;;3.60;99.90;;;;;;4958909;28;20344;-76
2022/12/01 04:32:03;;;;;;;85.30;44.83;;;3.60;99.90;;;;;;4976758;28;20639;-76
2022/12/01 04:34:29;;;;;;;83.83;44.37;;;3.60;99.90;;;;;;4963931;28;20722;-76
2022/12/01 04:36:57;;;;;;;80.73;44.47;;;3.60;99.90;;;;;;4993625;28;20245;-77
2022/12/01 04:39:24;;;;;;;85.10;46.07;;;3.60;99.90;;;;;;4974673;28;20642;-76
2022/12/01 04:41:51;;;;;;;79.60;42.17;;;3.60;99.90;;;;;;4961671;28;20234;-76
2022/12/01 04:44:17;;;;;;;86.03;43.83;;;3.70;99.90;;;;;;4964414;28;20234;-76
2022/12/01 04:46:44;;;;;;;80.50;42.87;;;3.60;99.90;;;;;;4964667;28;20311;-76
2022/12/01 04:49:11;;;;;;;88.63;44.97;;;3.70;99.90;;;;;;4963004;28;20745;-76
2022/12/01 04:51:38;;;;;;;86.47;45.60;;;3.70;99.90;;;;;;4964270;28;20226;-76
2022/12/01 04:54:06;;;;;;;81.50;43.40;;;3.70;99.90;;;;;;4965503;28;20625;-75
2022/12/01 04:56:33;;;;;;;84.53;44.57;;;3.70;99.90;;;;;;4966426;28;20258;-75
2022/12/01 04:59:00;;;;;;;87.37;44.67;;;3.70;99.90;;;;;;4964352;28;20234;-75
2022/12/01 05:01:28;;;;;;;90.77;44.27;;;3.70;99.90;;;;;;4959391;28;20230;-76
2022/12/01 05:03:54;;;;;;;81.37;42.37;;;3.70;99.90;;;;;;4959948;28;20227;-76
2022/12/01 05:06:23;;;;;;;80.37;43.43;;;3.70;99.90;;;;;;4967941;28;20233;-77
2022/12/01 05:08:51;;;;;;;89.90;45.20;;;3.70;99.90;;;;;;4965159;28;20436;-76
2022/12/01 05:11:19;;;;;;;87.57;45.57;;;3.60;99.90;;;;;;4967121;28;20704;-77
2022/12/01 05:13:48;;;;;;;87.47;44.73;;;3.60;99.90;;;;;;4967995;28;20227;-77
2022/12/01 05:16:16;;;;;;;82.60;43.00;;;3.60;99.90;;;;;;4963700;28;20226;-77
2022/12/01 05:18:43;;;;;;;85.80;43.33;;;3.60;99.90;;;;;;4971035;28;20589;-76
2022/12/01 05:21:10;;;;;;;86.97;45.00;;;3.60;99.90;;;;;;4967222;28;20223;-77
2022/12/01 05:23:37;;;;;;;89.33;45.33;;;3.60;99.90;;;;;;4969231;28;20306;-79
2022/12/01 05:26:06;;;;;;;85.53;43.97;;;3.60;99.90;;;;;;4970707;28;20225;-77
2022/12/01 05:28:35;;;;;;;85.27;44.33;;;3.60;99.90;;;;;;4964421;28;20238;-77
2022/12/01 05:31:02;;;;;;;87.57;43.17;;;3.60;99.90;;;;;;4966458;28;20226;-77
2022/12/01 05:33:30;;;;;;;86.57;44.17;;;3.60;99.90;;;;;;4985129;28;20227;-79
2022/12/01 05:35:56;;;;;;;88.20;43.27;;;3.60;99.90;;;;;;4970770;28;20225;-78
2022/12/01 05:38:23;;;;;;;84.43;44.40;;;3.60;99.90;;;;;;4971646;28;20701;-81
2022/12/01 05:40:52;;;;;;;83.03;41.33;;;3.60;99.90;;;;;;4970521;28;20285;-80
2022/12/01 05:43:19;;;;;;;84.97;43.63;;;3.60;99.90;;;;;;4968092;28;20590;-81
2022/12/01 05:45:48;;;;;;;86.37;45.40;;;3.50;99.90;;;;;;4997429;28;20247;-79
2022/12/01 05:48:15;;;;;;;88.73;44.60;;;3.50;99.90;;;;;;4965384;28;20325;-78
2022/12/01 05:50:43;;;;;;;85.77;43.90;;;3.50;99.90;;;;;;4969454;28;20237;-78
2022/12/01 05:53:14;;;;;;;89.57;45.20;;;3.50;99.90;;;;;;4969250;28;20218;-78
2022/12/01 05:55:41;;;;;;;88.03;43.70;;;3.50;99.90;;;;;;4967584;28;20265;-79
2022/12/01 05:58:08;;;;;;;100.33;43.83;;;3.50;99.90;;;;;;4969207;28;20231;-78
2022/12/01 06:00:35;;;;;;;88.33;44.73;;;3.50;99.90;;;;;;4971017;28;20233;-78
2022/12/01 06:03:04;;;;;;;86.93;44.67;;;3.50;99.90;;;;;;4965681;28;20222;-79
2022/12/01 06:05:31;;;;;;;91.63;45.40;;;3.50;99.90;;;;;;4973050;28;20231;-79
2022/12/01 06:07:57;;;;;;;83.23;43.13;;;3.50;99.90;;;;;;4973235;28;20223;-78
2022/12/01 06:10:24;;;;;;;90.90;43.80;;;3.50;99.90;;;;;;4974742;28;20700;-79
2022/12/01 06:12:51;;;;;;;87.17;44.80;;;3.50;99.90;;;;;;4972097;28;20230;-79
2022/12/01 06:15:18;;;;;;;83.97;42.50;;;3.50;99.90;;;;;;4970376;28;20231;-78
2022/12/01 06:17:44;;;;;;;88.40;44.70;;;3.50;99.90;;;;;;4966655;28;20238;-78
2022/12/01 06:20:13;;;;;;;88.30;44.60;;;3.50;99.90;;;;;;4972003;28;20314;-78
2022/12/01 06:22:40;;;;;;;88.37;45.80;;;3.50;99.90;;;;;;4972282;28;20301;-78
2022/12/01 06:25:08;;;;;;;77.90;41.00;;;3.60;99.90;;;;;;4972561;28;20296;-78
2022/12/01 06:27:35;;;;;;;87.90;44.90;;;3.50;99.90;;;;;;4970340;28;20246;-75
2022/12/01 06:30:02;;;;;;;89.43;44.53;;;3.50;99.90;;;;;;4964684;28;20215;-76
2022/12/01 06:32:29;;;;;;;93.17;42.83;;;3.50;99.90;;;;;;4961560;28;20234;-75
2022/12/01 06:34:56;;;;;;;90.77;45.83;;;3.50;99.90;;;;;;4966159;28;20302;-75
2022/12/01 06:37:24;;;;;;;96.10;46.70;;;3.50;99.90;;;;;;4968674;28;20231;-75
2022/12/01 06:39:51;;;;;;;93.87;44.27;;;3.50;99.90;;;;;;4968372;28;20238;-76
2022/12/01 06:42:17;;;;;;;91.80;45.77;;;3.50;99.90;;;;;;4965606;28;20236;-75
2022/12/01 06:44:45;;;;;;;99.63;45.67;;;3.40;99.90;;;;;;4963518;28;20230;-75
2022/12/01 06:47:12;;;;;;;95.23;44.70;;;3.40;99.90;;;;;;4963789;28;20726;-75
2022/12/01 06:49:38;;;;;;;97.60;46.13;;;3.40;99.90;;;;;;4964017;28;20486;-75
2022/12/01 06:52:05;;;;;;;93.70;44.53;;;3.40;99.90;;;;;;4962882;28;20231;-75
2022/12/01 06:54:35;;;;;;;85.53;42.87;;;3.40;99.90;;;;;;4962620;28;20223;-75
2022/12/01 06:57:03;;;;;;;88.63;43.77;;;3.40;99.90;;;;;;4973693;28;20266;-76
2022/12/01 06:59:30;;;;;;;90.10;43.23;;;3.40;99.90;;;;;;4958261;28;20223;-75
2022/12/01 07:04:29;;;;;;;93.80;44.90;;;3.30;99.90;;;;;;4954494;28;20218;-78
2022/12/01 07:06:56;;;;;;;92.73;45.50;;;3.30;99.90;;;;;;4958397;28;21253;-77
2022/12/01 07:09:23;;;;;;;90.40;45.97;;;3.30;99.90;;;;;;4954951;28;20239;-78
2022/12/01 07:11:54;;;;;;;88.90;44.07;;;3.40;99.90;;;;;;4963421;28;20234;-77
2022/12/01 07:14:23;;;;;;;97.20;46.37;;;3.40;99.90;;;;;;4943890;28;20246;-77
2022/12/01 07:16:50;;;;;;;84.10;41.93;;;3.40;99.90;;;;;;4947597;28;20318;-77
2022/12/01 07:19:17;;;;;;;84.80;42.40;;;3.40;99.90;;;;;;4943583;28;20230;-77
2022/12/01 07:21:44;;;;;;;84.90;42.13;;;3.30;99.90;;;;;;4947550;28;20234;-78
2022/12/01 07:24:12;;;;;;;88.70;43.33;;;3.40;99.90;;;;;;4946233;28;20232;-78
2022/12/01 07:26:39;;;;;;;88.17;43.20;;;3.40;99.90;;;;;;4944530;28;20227;-77
2022/12/01 07:29:08;;;;;;;86.77;44.03;;;3.30;99.90;;;;;;4936921;28;20275;-77
2022/12/01 07:31:35;;;;;;;82.70;42.70;;;3.30;99.90;;;;;;4942715;28;20361;-76
2022/12/01 07:34:02;;;;;;;88.13;44.03;;;3.30;99.90;;;;;;4942425;28;20302;-77
2022/12/01 07:36:29;;;;;;;81.43;43.03;;;3.30;99.90;;;;;;4934608;28;20224;-77
2022/12/01 07:38:55;;;;;;;85.60;40.77;;;3.40;99.90;;;;;;4964802;28;20227;-77
2022/12/01 07:41:22;;;;;;;83.07;42.57;;;3.30;99.90;;;;;;4941742;28;20219;-77
2022/12/01 07:43:50;;;;;;;80.83;41.13;;;3.30;99.90;;;;;;4936274;29;20600;-77
2022/12/01 07:46:20;;;;;;;83.77;41.97;;;3.30;99.90;;;;;;4940443;28;20271;-76
2022/12/01 07:48:48;;;;;;;82.40;41.60;;;3.30;99.90;;;;;;4944336;29;20231;-78
2022/12/01 07:51:16;;;;;;;80.17;40.40;;;3.40;99.90;;;;;;4945703;28;20874;-78
2022/12/01 07:53:45;;;;;;;82.33;41.50;;;3.30;99.90;;;;;;4946608;28;20247;-78
2022/12/01 07:56:12;;;;;;;81.13;40.13;;;3.40;99.90;;;;;;4949844;28;20235;-77
2022/12/01 07:58:39;;;;;;;78.43;41.57;;;3.40;99.90;;;;;;4949891;28;20223;-77
2022/12/01 08:01:09;;;;;;;79.03;40.30;;;3.50;99.90;;;;;;4934834;29;20216;-78
2022/12/01 08:03:37;;;;;;;76.43;39.57;;;3.40;99.90;;;;;;4946512;28;20238;-78
2022/12/01 08:06:05;;;;;;;73.43;38.37;;;3.40;99.90;;;;;;4936858;28;20245;-77
2022/12/01 08:08:33;;;;;;;74.20;40.00;;;3.40;99.90;;;;;;4944122;29;20223;-78
2022/12/01 08:11:01;;;;;;;71.13;36.90;;;3.40;99.90;;;;;;4944525;29;20237;-78
2022/12/01 08:13:28;;;;;;;71.67;36.87;;;3.50;99.90;;;;;;4935635;28;20244;-77
2022/12/01 08:15:55;;;;;;;72.80;36.43;;;3.50;99.90;;;;;;4944659;28;20763;-78
2022/12/01 08:18:22;;;;;;;71.30;38.23;;;3.50;99.90;;;;;;4937387;28;20696;-78
2022/12/01 08:20:51;;;;;;;76.53;38.33;;;3.40;99.90;;;;;;4950619;29;20286;-78
2022/12/01 08:23:17;;;;;;;71.97;35.97;;;3.40;99.90;;;;;;4942997;28;20254;-77
2022/12/01 08:25:44;;;;;;;72.63;36.53;;;3.30;99.90;;;;;;4947911;29;20314;-77
2022/12/01 08:28:11;;;;;;;76.50;36.97;;;3.40;99.90;;;;;;4933248;28;20230;-77
2022/12/01 08:30:38;;;;;;;75.93;37.13;;;3.30;99.90;;;;;;4963092;28;20231;-78
2022/12/01 08:33:04;;;;;;;71.27;36.37;;;3.30;99.90;;;;;;4946897;28;20285;-78
2022/12/01 08:35:34;;;;;;;81.33;39.10;;;3.30;99.90;;;;;;4948834;28;20837;-77
2022/12/01 08:38:02;;;;;;;84.67;39.63;;;3.30;99.90;;;;;;4945432;28;20462;-78
2022/12/01 08:40:29;;;;;;;83.97;39.23;;;3.30;99.90;;;;;;4959673;28;20271;-78
2022/12/01 08:42:59;;;;;;;75.73;38.93;;;3.30;99.90;;;;;;4947821;28;20258;-77
2022/12/01 08:45:26;;;;;;;79.93;39.40;;;3.30;99.90;;;;;;4941249;28;20258;-77
2022/12/01 08:47:53;;;;;;;80.07;38.73;;;3.30;99.90;;;;;;4930548;29;20246;-77
2022/12/01 08:50:20;;;;;;;78.83;37.70;;;3.30;99.90;;;;;;4946405;28;20227;-77
2022/12/01 08:52:46;;;;;;;73.33;37.40;;;3.30;99.90;;;;;;4951599;28;20234;-77
2022/12/01 08:55:19;;;;;;;77.73;37.77;;;3.30;99.90;;;;;;4947993;28;20582;-76
2022/12/01 08:57:46;;;;;;;72.80;36.97;;;3.40;99.90;;;;;;4949213;28;20236;-77
2022/12/01 09:00:14;;;;;;;73.30;36.33;;;3.40;99.90;;;;;;4950201;28;20624;-77
2022/12/01 09:02:40;;;;;;;69.57;35.03;;;3.40;99.90;;;;;;4944816;28;20255;-77
2022/12/01 09:05:08;;;;;;;69.80;35.53;;;3.40;99.90;;;;;;4926711;29;20254;-76
2022/12/01 09:07:34;;;;;;;72.17;36.40;;;3.40;99.90;;;;;;4931041;29;20234;-77
2022/12/01 09:10:01;;;;;;;72.00;34.63;;;3.40;99.90;;;;;;4932784;29;20794;-77
2022/12/01 09:12:31;;;;;;;67.60;33.70;;;3.40;99.90;;;;;;4946199;28;20693;-76
2022/12/01 09:14:57;;;;;;;68.43;33.87;;;3.40;99.90;;;;;;4946165;28;20228;-77
2022/12/01 09:17:24;;;;;;;72.37;34.20;;;3.50;99.90;;;;;;4933820;28;20240;-77
2022/12/01 09:19:54;;;;;;;68.43;33.53;;;3.50;99.90;;;;;;4943527;29;20454;-78
2022/12/01 09:22:20;;;;;;;69.83;33.97;;;3.50;99.90;;;;;;4946088;28;20328;-78
2022/12/01 09:24:47;;;;;;;69.43;33.97;;;3.50;99.90;;;;;;4940346;29;20235;-78
2022/12/01 09:27:14;;;;;;;65.80;33.47;;;3.50;99.90;;;;;;4947699;28;20226;-78
2022/12/01 09:29:42;;;;;;;70.03;35.10;;;3.50;99.90;;;;;;4940776;29;20310;-77
2022/12/01 09:32:08;;;;;;;70.03;33.10;;;3.50;99.90;;;;;;4961731;28;20234;-78
2022/12/01 09:34:35;;;;;;;63.17;32.87;;;3.60;99.90;;;;;;4949331;28;20224;-77
2022/12/01 09:37:02;;;;;;;65.87;32.57;;;3.50;99.90;;;;;;4943376;29;20709;-77
2022/12/01 09:39:28;;;;;;;70.40;33.00;;;3.60;99.90;;;;;;4931688;29;20225;-77
2022/12/01 09:42:01;;;;;;;65.57;31.13;;;3.60;99.90;;;;;;4943724;28;20256;-77
2022/12/01 09:44:35;;;;;;;67.70;31.60;;;3.70;99.90;;;;;;4938467;29;20232;-76
2022/12/01 09:47:09;;;;;;;64.00;32.67;;;3.70;99.90;;;;;;4937556;28;20232;-77
2022/12/01 09:49:47;;;;;;;63.80;30.67;;;3.70;99.90;;;;;;4947070;28;20232;-77
2022/12/01 09:52:16;;;;;;;65.43;32.87;;;3.80;99.90;;;;;;4970867;28;20230;-77
2022/12/01 09:54:43;;;;;;;66.17;31.13;;;3.80;99.90;;;;;;4943650;28;20227;-77
2022/12/01 09:57:18;;;;;;;62.67;31.73;;;3.90;99.90;;;;;;4944425;28;20216;-78
2022/12/01 09:59:46;;;;;;;64.57;32.43;;;3.90;99.90;;;;;;4942746;28;20303;-77
2022/12/01 10:02:29;;;;;;;66.50;32.97;;;3.90;99.90;;;;;;4936291;29;20224;-77
2022/12/01 10:05:01;;;;;;;67.43;33.90;;;3.90;99.90;;;;;;4946700;28;20307;-77
2022/12/01 10:07:33;;;;;;;64.40;33.83;;;3.90;99.90;;;;;;4946852;28;20232;-77
2022/12/01 10:10:03;;;;;;;65.60;32.17;;;3.90;99.90;;;;;;4939683;28;20223;-77
2022/12/01 10:12:33;;;;;;;65.77;31.93;;;3.90;99.90;;;;;;4940571;28;20244;-77
2022/12/01 10:15:13;;;;;;;60.67;31.10;;;3.80;99.90;;;;;;4933686;28;20235;-79
2022/12/01 10:17:51;;;;;;;59.50;29.73;;;3.80;99.90;;;;;;4938996;28;20638;-77
2022/12/01 10:20:22;;;;;;;54.10;28.17;;;3.80;99.90;;;;;;4935401;28;20224;-77
2022/12/01 10:23:02;;;;;;;66.63;28.70;;;3.80;99.90;;;;;;4942243;28;20230;-77
2022/12/01 10:25:34;;;;;;;52.17;25.67;;;3.70;99.90;;;;;;4949442;28;20258;-77
2022/12/01 10:28:19;;;;;;;49.83;25.13;;;3.60;99.90;;;;;;4941814;28;20219;-77
2022/12/01 10:30:49;;;;;;;48.67;25.17;;;3.60;99.90;;;;;;4941052;28;20226;-77
2022/12/01 10:33:24;;;;;;;49.83;25.03;;;3.50;99.90;;;;;;4941800;28;20231;-77
2022/12/01 10:35:53;;;;;;;46.43;24.50;;;3.50;99.90;;;;;;4953044;28;20324;-76
2022/12/01 10:38:26;;;;;;;49.17;23.97;;;3.40;99.90;;;;;;4943284;28;20220;-76
2022/12/01 10:40:57;;;;;;;49.67;24.77;;;3.40;99.90;;;;;;4949655;28;20310;-77
2022/12/01 10:43:32;;;;;;;49.70;25.13;;;3.40;99.90;;;;;;4947805;28;20289;-77
2022/12/01 10:46:05;;;;;;;52.33;25.77;;;3.40;99.90;;;;;;4938822;28;20230;-77
2022/12/01 10:48:34;;;;;;;59.00;26.50;;;3.40;99.90;;;;;;4943892;28;20254;-77
2022/12/01 10:51:15;;;;;;;61.40;28.23;;;3.40;99.90;;;;;;4930511;29;20226;-77
2022/12/01 10:53:42;;;;;;;53.70;26.87;;;3.30;99.90;;;;;;4945449;28;20257;-77
2022/12/01 10:56:12;;;;;;;62.13;27.10;;;3.30;99.90;;;;;;4955774;28;20731;-77
2022/12/01 10:58:46;;;;;;;60.37;27.73;;;3.20;99.90;;;;;;4977157;28;20220;-77
2022/12/01 11:01:19;;;;;;;56.10;28.63;;;3.20;99.90;;;;;;4937101;29;20227;-78
2022/12/01 11:03:56;;;;;;;57.33;25.17;;;3.10;99.90;;;;;;4943182;28;20231;-78
2022/12/01 11:06:26;;;;;;;53.60;25.87;;;3.10;99.90;;;;;;4950991;28;20223;-77
2022/12/01 11:08:56;;;;;;;54.57;26.20;;;3.10;99.90;;;;;;4935514;29;20238;-77
2022/12/01 11:11:27;;;;;;;48.43;23.53;;;3.10;99.90;;;;;;4943522;28;20247;-78
2022/12/01 11:13:58;;;;;;;47.60;23.97;;;3.10;99.90;;;;;;4945660;29;20306;-77
2022/12/01 11:16:40;;;;;;;48.80;23.40;;;3.10;99.90;;;;;;4947483;28;20235;-77
2022/12/01 11:19:19;;;;;;;47.13;21.53;;;3.10;99.90;;;;;;4939034;28;20222;-77
2022/12/01 11:21:48;;;;;;;45.17;21.83;;;3.00;99.90;;;;;;4942451;28;20670;-77
2022/12/01 11:24:29;;;;;;;45.73;22.20;;;3.10;99.90;;;;;;4941299;28;20701;-77
2022/12/01 11:26:57;;;;;;;47.27;22.63;;;3.10;99.90;;;;;;4938404;28;20395;-77
2022/12/01 11:29:34;;;;;;;44.63;21.33;;;3.10;99.90;;;;;;4942288;28;20239;-77
2022/12/01 11:32:01;;;;;;;41.87;21.60;;;3.10;99.90;;;;;;4951479;28;20233;-77
2022/12/01 11:34:37;;;;;;;44.10;19.60;;;3.10;99.90;;;;;;4958431;28;20222;-77
2022/12/01 11:37:07;;;;;;;44.57;20.27;;;3.10;99.90;;;;;;4943217;28;20281;-77
2022/12/01 11:39:39;;;;;;;43.23;20.40;;;3.10;99.90;;;;;;4939669;28;20234;-77
2022/12/01 11:42:22;;;;;;;43.17;20.03;;;3.00;99.90;;;;;;4941496;28;20247;-77
2022/12/01 11:45:00;;;;;;;45.70;21.73;;;3.00;99.90;;;;;;4938899;28;20234;-77
2022/12/01 11:47:27;;;;;;;48.87;21.77;;;3.10;99.90;;;;;;4937261;28;20230;-77
2022/12/01 11:49:59;;;;;;;47.97;20.40;;;3.00;99.90;;;;;;4943636;28;20226;-77
2022/12/01 11:52:29;;;;;;;46.33;21.07;;;3.00;99.90;;;;;;4943595;28;20606;-77
2022/12/01 11:54:59;;;;;;;45.87;20.90;;;3.00;99.90;;;;;;4942300;28;20219;-77
2022/12/01 11:57:27;;;;;;;48.60;20.17;;;3.00;99.90;;;;;;4941822;28;20478;-77
2022/12/01 11:59:54;;;;;;;47.93;20.80;;;3.00;99.90;;;;;;4938987;29;20305;-77
2022/12/01 12:02:30;;;;;;;48.70;20.13;;;3.10;99.90;;;;;;4941210;28;20240;-77
2022/12/01 12:05:13;;;;;;;47.20;21.13;;;3.00;99.90;;;;;;4943365;29;20801;-77
2022/12/01 12:07:48;;;;;;;49.03;21.40;;;3.10;99.90;;;;;;4940389;28;20341;-77
2022/12/01 12:10:30;;;;;;;49.67;21.43;;;3.00;99.90;;;;;;4937040;28;20227;-77
2022/12/01 12:13:18;;;;;;;51.00;21.13;;;3.00;99.90;;;;;;4937132;28;20251;-78
2022/12/01 12:15:58;;;;;;;51.10;21.70;;;3.10;99.90;;;;;;4936007;28;20232;-78
2022/12/01 12:18:43;;;;;;;55.10;23.50;;;3.10;99.90;;;;;;4934016;28;20222;-78
2022/12/01 12:21:23;;;;;;;55.30;22.20;;;3.10;99.90;;;;;;4944333;29;21419;-78
2022/12/01 12:24:06;;;;;;;55.93;21.60;;;3.00;99.90;;;;;;4944127;28;20563;-78
2022/12/01 12:26:40;;;;;;;53.97;20.80;;;3.10;99.90;;;;;;4941904;28;20288;-78
2022/12/01 12:29:21;;;;;;;57.13;22.03;;;3.10;99.90;;;;;;4934768;28;20232;-78
2022/12/01 12:32:05;;;;;;;57.10;22.20;;;3.00;99.90;;;;;;4940210;28;20230;-78
2022/12/01 12:34:43;;;;;;;51.17;20.23;;;3.00;99.90;;;;;;4944066;28;20345;-78
2022/12/01 12:37:23;;;;;;;47.50;19.90;;;3.00;99.90;;;;;;4966360;28;20240;-78
2022/12/01 12:40:09;;;;;;;49.37;19.20;;;3.00;99.90;;;;;;4970965;28;20234;-78
2022/12/01 12:42:46;;;;;;;46.33;19.23;;;3.00;99.90;;;;;;4950021;29;20245;-78
2022/12/01 12:45:19;;;;;;;46.90;19.90;;;3.00;99.90;;;;;;4946464;28;20656;-78
2022/12/01 12:48:04;;;;;;;52.53;19.87;;;2.90;99.90;;;;;;4936590;28;20227;-78
2022/12/01 12:50:38;;;;;;;48.63;18.93;;;2.90;99.90;;;;;;4946976;28;20233;-78
2022/12/01 12:53:13;;;;;;;52.00;19.03;;;2.90;99.90;;;;;;4949816;28;20266;-78
2022/12/01 12:55:46;;;;;;;48.83;19.10;;;2.90;99.90;;;;;;4943141;28;20242;-78
2022/12/01 12:58:20;;;;;;;48.63;18.97;;;2.90;99.90;;;;;;4949376;28;20208;-78
2022/12/01 13:00:51;;;;;;;47.30;18.77;;;2.90;99.90;;;;;;4944175;29;20307;-78